Time,TemperatureF,DewpointF,PressureIn,WindDirection,WindDirectionDegrees,WindSpeedMPH,WindSpeedGustMPH,Humidity,HourlyPrecipIn,Conditions,Clouds,dailyrainin,SolarRadiationWatts/m^2,SoftwareType,DateUTC
2013-04-07 00:03:00,39.7,32.8,30.31,SSW,212,4.0,7.0,76,0.00,,,0.00,0,Wunderground v.1.15,2013-04-07 04:03:00,
2013-04-07 00:08:00,39.6,32.7,30.31,South,174,3.0,3.0,76,0.00,,,0.00,0,Wunderground v.1.15,2013-04-07 04:08:00,
2013-04-07 00:18:00,39.6,32.7,30.31,South,190,3.0,3.0,76,0.00,,,0.00,0,Wunderground v.1.15,2013-04-07 04:18:00,
2013-04-07 00:22:00,39.6,32.7,30.31,South,190,3.0,7.0,76,0.00,,,0.00,0,Wunderground v.1.15,2013-04-07 04:22:00,
2013-04-07 00:33:00,39.3,32.7,30.30,South,189,3.0,7.0,77,0.00,,,0.00,0,Wunderground v.1.15,2013-04-07 04:33:00,
2013-04-07 00:42:00,39.3,32.7,30.30,South,189,2.0,7.0,77,0.00,,,0.00,0,Wunderground v.1.15,2013-04-07 04:42:00,
2013-04-07 00:53:00,39.1,32.5,30.30,South,189,2.0,7.0,77,0.00,,,0.00,0,Wunderground v.1.15,2013-04-07 04:53:00,
2013-04-07 01:02:00,38.8,32.5,30.30,South,189,1.0,4.0,78,0.00,,,0.00,0,Wunderground v.1.15,2013-04-07 05:02:00,
2013-04-07 01:08:00,38.4,32.1,30.30,South,189,1.0,1.0,78,0.00,,,0.00,0,Wunderground v.1.15,2013-04-07 05:08:00,
2013-04-07 01:18:00,38.1,32.5,30.30,South,189,1.0,4.0,80,0.00,,,0.00,0,Wunderground v.1.15,2013-04-07 05:18:00,
2013-04-07 01:23:00,38.0,32.1,30.30,South,189,1.0,4.0,79,0.00,,,0.00,0,Wunderground v.1.15,2013-04-07 05:23:00,
2013-04-07 01:33:00,37.5,31.6,30.30,South,189,0.0,3.0,79,0.00,,,0.00,0,Wunderground v.1.15,2013-04-07 05:33:00,
2013-04-07 01:42:00,37.1,31.8,30.30,South,189,0.0,3.0,81,0.00,,,0.00,0,Wunderground v.1.15,2013-04-07 05:42:00,
2013-04-07 01:48:00,36.8,31.8,30.29,South,189,0.0,3.0,82,0.00,,,0.00,0,Wunderground v.1.15,2013-04-07 05:48:00,
2013-04-07 01:57:00,37.4,32.7,30.29,South,189,0.0,2.0,83,0.00,,,0.00,0,Wunderground v.1.15,2013-04-07 05:57:00,
2013-04-07 02:08:00,37.4,32.7,30.28,South,189,0.0,2.0,83,0.00,,,0.00,0,Wunderground v.1.15,2013-04-07 06:08:00,
2013-04-07 02:17:00,36.9,31.9,30.28,South,189,0.0,2.0,82,0.00,,,0.00,0,Wunderground v.1.15,2013-04-07 06:17:00,
2013-04-07 02:28:00,36.0,31.0,30.28,South,189,0.0,0.0,82,0.00,,,0.00,0,Wunderground v.1.15,2013-04-07 06:28:00,
2013-04-07 02:38:00,35.2,30.6,30.28,South,189,0.0,0.0,83,0.00,,,0.00,0,Wunderground v.1.15,2013-04-07 06:38:00,
2013-04-07 02:48:00,35.3,30.9,30.28,South,189,0.0,0.0,84,0.00,,,0.00,0,Wunderground v.1.15,2013-04-07 06:48:00,
2013-04-07 02:57:00,35.8,31.4,30.28,South,189,0.0,2.0,84,0.00,,,0.00,0,Wunderground v.1.15,2013-04-07 06:57:00,
2013-04-07 03:08:00,36.3,32.2,30.28,South,189,1.0,1.0,85,0.00,,,0.00,0,Wunderground v.1.15,2013-04-07 07:08:00,
2013-04-07 03:17:00,36.6,32.5,30.28,South,189,1.0,1.0,85,0.00,,,0.00,0,Wunderground v.1.15,2013-04-07 07:17:00,
2013-04-07 03:28:00,37.6,33.2,30.28,South,189,2.0,2.0,84,0.00,,,0.00,0,Wunderground v.1.15,2013-04-07 07:28:00,
2013-04-07 03:37:00,38.0,33.3,30.28,South,175,2.0,2.0,83,0.00,,,0.00,0,Wunderground v.1.15,2013-04-07 07:37:00,
2013-04-07 03:48:00,38.5,33.8,30.28,South,175,3.0,4.0,83,0.00,,,0.00,0,Wunderground v.1.15,2013-04-07 07:48:00,
2013-04-07 03:58:00,38.8,34.1,30.28,South,169,3.0,3.0,83,0.00,,,0.00,0,Wunderground v.1.15,2013-04-07 07:58:00,
2013-04-07 04:07:00,39.2,34.5,30.27,South,186,3.0,5.0,83,0.00,,,0.00,0,Wunderground v.1.15,2013-04-07 08:07:00,
2013-04-07 04:13:00,39.4,34.7,30.28,South,170,4.0,5.0,83,0.00,,,0.00,0,Wunderground v.1.15,2013-04-07 08:13:00,
2013-04-07 04:23:00,39.6,34.9,30.28,South,178,3.0,7.0,83,0.00,,,0.00,0,Wunderground v.1.15,2013-04-07 08:23:00,
2013-04-07 04:33:00,39.8,35.1,30.28,South,178,4.0,7.0,83,0.00,,,0.00,0,Wunderground v.1.15,2013-04-07 08:33:00,
2013-04-07 04:42:00,39.9,35.2,30.28,SSW,205,3.0,7.0,83,0.00,,,0.00,0,Wunderground v.1.15,2013-04-07 08:42:00,
2013-04-07 04:53:00,40.1,35.4,30.28,South,171,4.0,4.0,83,0.00,,,0.00,0,Wunderground v.1.15,2013-04-07 08:53:00,
2013-04-07 05:02:00,40.2,35.8,30.28,South,184,4.0,7.0,84,0.00,,,0.00,0,Wunderground v.1.15,2013-04-07 09:02:00,
2013-04-07 05:13:00,40.3,36.1,30.28,SSE,167,4.0,7.0,85,0.00,,,0.00,0,Wunderground v.1.15,2013-04-07 09:13:00,
2013-04-07 05:23:00,40.3,36.1,30.28,South,182,4.0,5.0,85,0.00,,,0.00,0,Wunderground v.1.15,2013-04-07 09:23:00,
2013-04-07 05:32:00,40.4,36.2,30.28,SSW,194,4.0,8.0,85,0.00,,,0.00,0,Wunderground v.1.15,2013-04-07 09:32:00,
2013-04-07 05:43:00,40.4,36.2,30.29,South,177,4.0,8.0,85,0.00,,,0.00,0,Wunderground v.1.15,2013-04-07 09:43:00,
2013-04-07 05:53:00,40.5,36.3,30.28,SSW,196,4.0,8.0,85,0.00,,,0.00,0,Wunderground v.1.15,2013-04-07 09:53:00,
2013-04-07 06:03:00,40.4,36.2,30.29,South,170,4.0,7.0,85,0.00,,,0.00,0,Wunderground v.1.15,2013-04-07 10:03:00,
2013-04-07 06:13:00,40.5,36.3,30.29,South,189,4.0,7.0,85,0.00,,,0.00,0,Wunderground v.1.15,2013-04-07 10:13:00,
2013-04-07 06:23:00,40.5,36.3,30.29,South,180,3.0,7.0,85,0.00,,,0.00,5,Wunderground v.1.15,2013-04-07 10:23:00,
2013-04-07 06:33:00,40.6,36.4,30.30,South,180,3.0,7.0,85,0.00,,,0.00,14,Wunderground v.1.15,2013-04-07 10:33:00,
2013-04-07 06:43:00,40.7,36.5,30.30,South,186,3.0,7.0,85,0.00,,,0.00,33,Wunderground v.1.15,2013-04-07 10:43:00,
2013-04-07 06:53:00,41.2,37.0,30.30,SSE,163,4.0,4.0,85,0.00,,,0.00,72,Wunderground v.1.15,2013-04-07 10:53:00,
2013-04-07 07:02:00,41.7,37.2,30.30,South,190,4.0,6.0,84,0.00,,,0.00,79,Wunderground v.1.15,2013-04-07 11:02:00,
2013-04-07 07:08:00,41.9,37.4,30.30,SSE,151,4.0,6.0,84,0.00,,,0.00,83,Wunderground v.1.15,2013-04-07 11:08:00,
2013-04-07 07:17:00,42.1,37.6,30.30,South,171,4.0,6.0,84,0.00,,,0.00,74,Wunderground v.1.15,2013-04-07 11:17:00,
2013-04-07 07:23:00,42.1,37.6,30.30,South,180,5.0,9.0,84,0.00,,,0.00,76,Wunderground v.1.15,2013-04-07 11:23:00,
2013-04-07 07:33:00,42.2,37.7,30.30,South,180,5.0,9.0,84,0.00,,,0.00,118,Wunderground v.1.15,2013-04-07 11:33:00,
2013-04-07 07:42:00,42.5,38.0,30.30,SSE,154,5.0,9.0,84,0.00,,,0.00,209,Wunderground v.1.15,2013-04-07 11:42:00,
2013-04-07 07:47:00,42.7,37.9,30.30,SSE,165,5.0,5.0,83,0.00,,,0.00,218,Wunderground v.1.15,2013-04-07 11:47:00,
2013-04-07 07:58:00,43.2,38.4,30.30,SSE,147,5.0,9.0,83,0.00,,,0.00,290,Wunderground v.1.15,2013-04-07 11:58:00,
2013-04-07 08:07:00,43.1,37.7,30.31,SSE,167,7.0,7.0,81,0.00,,,0.00,281,Wunderground v.1.15,2013-04-07 12:07:00,
2013-04-07 08:18:00,44.1,38.6,30.30,SSE,165,4.0,4.0,81,0.00,,,0.00,359,Wunderground v.1.15,2013-04-07 12:18:00,
2013-04-07 08:27:00,44.4,38.6,30.30,ESE,103,6.0,11.0,80,0.00,,,0.00,399,Wunderground v.1.15,2013-04-07 12:27:00,
2013-04-07 08:38:00,44.2,38.1,30.30,South,179,7.0,11.0,79,0.00,,,0.00,397,Wunderground v.1.15,2013-04-07 12:38:00,
2013-04-07 08:48:00,44.0,38.2,30.29,South,184,7.0,7.0,80,0.00,,,0.00,352,Wunderground v.1.15,2013-04-07 12:48:00,
2013-04-07 08:58:00,45.2,38.7,30.29,SSE,155,4.0,11.0,78,0.00,,,0.00,427,Wunderground v.1.15,2013-04-07 12:58:00,
2013-04-07 09:08:00,45.1,39.0,30.29,ESE,111,5.0,5.0,79,0.00,,,0.00,320,Wunderground v.1.15,2013-04-07 13:08:00,
2013-04-07 09:17:00,44.9,39.4,30.29,ESE,111,5.0,5.0,81,0.00,,,0.00,366,Wunderground v.1.15,2013-04-07 13:17:00,
2013-04-07 09:23:00,44.9,39.4,30.29,SE,138,4.0,6.0,81,0.00,,,0.00,520,Wunderground v.1.15,2013-04-07 13:23:00,
2013-04-07 09:33:00,45.7,39.9,30.28,SE,133,5.0,11.0,80,0.00,,,0.00,503,Wunderground v.1.15,2013-04-07 13:33:00,
2013-04-07 09:42:00,45.7,39.9,30.28,SSE,157,6.0,11.0,80,0.00,,,0.00,434,Wunderground v.1.15,2013-04-07 13:42:00,
2013-04-07 09:48:00,45.5,39.4,30.28,SE,135,6.0,6.0,79,0.00,,,0.00,552,Wunderground v.1.15,2013-04-07 13:48:00,
2013-04-07 09:58:00,46.3,39.5,30.28,SE,144,5.0,10.0,77,0.00,,,0.00,591,Wunderground v.1.15,2013-04-07 13:58:00,
2013-04-07 10:07:00,46.6,39.1,30.28,ESE,119,7.0,11.0,75,0.00,,,0.00,580,Wunderground v.1.15,2013-04-07 14:07:00,
2013-04-07 10:18:00,47.4,39.2,30.28,SE,129,6.0,6.0,73,0.00,,,0.00,686,Wunderground v.1.15,2013-04-07 14:18:00,
2013-04-07 10:28:00,47.7,38.8,30.28,SE,140,8.0,8.0,71,0.00,,,0.00,724,Wunderground v.1.15,2013-04-07 14:28:00,
2013-04-07 10:37:00,48.4,39.1,30.27,SE,138,8.0,14.0,70,0.00,,,0.00,925,Wunderground v.1.15,2013-04-07 14:37:00,
2013-04-07 10:43:00,48.3,38.6,30.27,SE,130,7.0,14.0,69,0.00,,,0.00,580,Wunderground v.1.15,2013-04-07 14:43:00,
2013-04-07 10:53:00,47.7,38.4,30.27,ESE,118,8.0,15.0,70,0.00,,,0.00,814,Wunderground v.1.15,2013-04-07 14:53:00,
2013-04-07 11:02:00,47.4,38.8,30.27,ESE,117,7.0,13.0,72,0.00,,,0.00,884,Wunderground v.1.15,2013-04-07 15:02:00,
2013-04-07 11:07:00,47.8,38.8,30.27,SSE,167,8.0,8.0,71,0.00,,,0.00,896,Wunderground v.1.15,2013-04-07 15:07:00,
2013-04-07 11:18:00,48.6,38.9,30.26,East,100,7.0,7.0,69,0.00,,,0.00,821,Wunderground v.1.15,2013-04-07 15:18:00,
2013-04-07 11:28:00,48.5,38.4,30.27,ESE,123,7.0,14.0,68,0.00,,,0.00,844,Wunderground v.1.15,2013-04-07 15:28:00,
2013-04-07 11:37:00,48.4,39.1,30.26,SSE,154,7.0,7.0,70,0.00,,,0.00,397,Wunderground v.1.15,2013-04-07 15:37:00,
2013-04-07 11:43:00,49.0,39.3,30.26,SE,131,6.0,14.0,69,0.00,,,0.00,900,Wunderground v.1.15,2013-04-07 15:43:00,
2013-04-07 11:52:00,49.3,39.6,30.25,East,97,7.0,7.0,69,0.00,,,0.00,1055,Wunderground v.1.15,2013-04-07 15:52:00,
2013-04-07 11:58:00,49.2,39.5,30.25,SE,144,7.0,7.0,69,0.00,,,0.00,1034,Wunderground v.1.15,2013-04-07 15:58:00,
2013-04-07 12:08:00,50.0,39.8,30.25,SE,130,7.0,7.0,68,0.00,,,0.00,1095,Wunderground v.1.15,2013-04-07 16:08:00,
2013-04-07 12:17:00,50.1,39.9,30.25,South,175,7.0,15.0,68,0.00,,,0.00,1095,Wunderground v.1.15,2013-04-07 16:17:00,
2013-04-07 12:23:00,50.1,40.7,30.24,ESE,109,8.0,15.0,70,0.00,,,0.00,1104,Wunderground v.1.15,2013-04-07 16:23:00,
2013-04-07 12:33:00,49.9,40.9,30.23,SE,135,9.0,9.0,71,0.00,,,0.00,1095,Wunderground v.1.15,2013-04-07 16:33:00,
2013-04-07 12:43:00,49.2,40.6,30.23,SE,131,7.0,14.0,72,0.00,,,0.00,566,Wunderground v.1.15,2013-04-07 16:43:00,
2013-04-07 12:53:00,50.8,41.0,30.22,SSE,160,5.0,15.0,69,0.00,,,0.00,991,Wunderground v.1.15,2013-04-07 16:53:00,
2013-04-07 12:58:00,50.9,41.1,30.22,SSE,160,6.0,15.0,69,0.00,,,0.00,896,Wunderground v.1.15,2013-04-07 16:58:00,
2013-04-07 13:08:00,50.7,40.9,30.21,ESE,120,7.0,15.0,69,0.00,,,0.00,882,Wunderground v.1.15,2013-04-07 17:08:00,
2013-04-07 13:18:00,50.4,41.0,30.20,SSE,159,8.0,8.0,70,0.00,,,0.00,812,Wunderground v.1.15,2013-04-07 17:18:00,
2013-04-07 13:28:00,50.6,41.5,30.20,South,186,8.0,8.0,71,0.00,,,0.00,872,Wunderground v.1.15,2013-04-07 17:28:00,
2013-04-07 13:33:00,50.2,41.2,30.20,SE,129,8.0,14.0,71,0.00,,,0.00,863,Wunderground v.1.15,2013-04-07 17:33:00,
2013-04-07 13:43:00,50.8,42.1,30.19,SSE,155,8.0,14.0,72,0.00,,,0.00,860,Wunderground v.1.15,2013-04-07 17:43:00,
2013-04-07 13:48:00,51.0,41.6,30.19,SSE,161,7.0,7.0,70,0.00,,,0.00,863,Wunderground v.1.15,2013-04-07 17:48:00,
2013-04-07 13:58:00,50.5,41.4,30.18,SE,128,8.0,15.0,71,0.00,,,0.00,865,Wunderground v.1.15,2013-04-07 17:58:00,
2013-04-07 14:08:00,50.1,42.5,30.18,SSE,168,8.0,8.0,75,0.00,,,0.00,872,Wunderground v.1.15,2013-04-07 18:08:00,
2013-04-07 14:18:00,49.7,42.1,30.17,ESE,121,9.0,9.0,75,0.00,,,0.00,840,Wunderground v.1.15,2013-04-07 18:18:00,
2013-04-07 14:27:00,49.7,42.4,30.17,SE,125,9.0,9.0,76,0.00,,,0.00,773,Wunderground v.1.15,2013-04-07 18:27:00,
2013-04-07 14:33:00,50.0,42.4,30.17,SE,144,9.0,15.0,75,0.00,,,0.00,809,Wunderground v.1.15,2013-04-07 18:33:00,
2013-04-07 14:43:00,49.3,42.1,30.17,SSE,164,9.0,15.0,76,0.00,,,0.00,773,Wunderground v.1.15,2013-04-07 18:43:00,
2013-04-07 14:53:00,48.5,42.0,30.17,SE,144,12.0,16.0,78,0.00,,,0.00,744,Wunderground v.1.15,2013-04-07 18:53:00,
2013-04-07 15:03:00,48.9,42.7,30.16,SE,125,13.0,18.0,79,0.00,,,0.00,773,Wunderground v.1.15,2013-04-07 19:03:00,
2013-04-07 15:13:00,49.2,42.3,30.15,South,183,11.0,18.0,77,0.00,,,0.00,694,Wunderground v.1.15,2013-04-07 19:13:00,
2013-04-07 15:22:00,48.8,42.2,30.14,SSE,155,12.0,13.0,78,0.00,,,0.00,647,Wunderground v.1.15,2013-04-07 19:22:00,
2013-04-07 15:28:00,49.6,43.0,30.14,SE,137,11.0,20.0,78,0.00,,,0.00,629,Wunderground v.1.15,2013-04-07 19:28:00,
2013-04-07 15:38:00,48.9,42.7,30.13,SE,146,9.0,20.0,79,0.00,,,0.00,629,Wunderground v.1.15,2013-04-07 19:38:00,
2013-04-07 15:47:00,49.7,42.8,30.12,SE,141,8.0,20.0,77,0.00,,,0.00,439,Wunderground v.1.15,2013-04-07 19:47:00,
2013-04-07 15:53:00,48.9,42.3,30.12,SSE,153,10.0,20.0,78,0.00,,,0.00,396,Wunderground v.1.15,2013-04-07 19:53:00,
2013-04-07 15:58:00,49.1,42.9,30.12,SSE,150,11.0,11.0,79,0.00,,,0.00,654,Wunderground v.1.15,2013-04-07 19:58:00,
2013-04-07 16:08:00,49.4,42.8,30.12,ESE,115,10.0,18.0,78,0.00,,,0.00,469,Wunderground v.1.15,2013-04-07 20:08:00,
2013-04-07 16:18:00,48.6,42.4,30.11,ESE,107,10.0,10.0,79,0.00,,,0.00,454,Wunderground v.1.15,2013-04-07 20:18:00,
2013-04-07 16:28:00,48.6,42.4,30.11,SSE,147,11.0,21.0,79,0.00,,,0.00,483,Wunderground v.1.15,2013-04-07 20:28:00,
2013-04-07 16:37:00,48.9,42.7,30.10,South,191,11.0,11.0,79,0.00,,,0.00,392,Wunderground v.1.15,2013-04-07 20:37:00,
2013-04-07 16:43:00,48.9,42.7,30.10,SE,139,12.0,17.0,79,0.00,,,0.00,506,Wunderground v.1.15,2013-04-07 20:43:00,
2013-04-07 16:53:00,49.1,42.5,30.10,ESE,123,10.0,16.0,78,0.00,,,0.00,388,Wunderground v.1.15,2013-04-07 20:53:00,
2013-04-07 17:03:00,48.3,42.1,30.09,SSE,153,11.0,22.0,79,0.00,,,0.00,264,Wunderground v.1.15,2013-04-07 21:03:00,
2013-04-07 17:13:00,47.7,41.8,30.08,SE,142,13.0,22.0,80,0.00,,,0.00,288,Wunderground v.1.15,2013-04-07 21:13:00,
2013-04-07 17:23:00,47.9,42.0,30.09,SE,130,12.0,24.0,80,0.00,,,0.00,306,Wunderground v.1.15,2013-04-07 21:23:00,
2013-04-07 17:33:00,47.4,41.9,30.08,SE,144,14.0,14.0,81,0.00,,,0.00,165,Wunderground v.1.15,2013-04-07 21:33:00,
2013-04-07 17:42:00,47.0,41.8,30.07,SE,144,11.0,24.0,82,0.00,,,0.00,128,Wunderground v.1.15,2013-04-07 21:42:00,
2013-04-07 17:47:00,47.0,42.1,30.08,East,101,11.0,24.0,83,0.00,,,0.00,216,Wunderground v.1.15,2013-04-07 21:47:00,
2013-04-07 17:53:00,47.2,42.0,30.07,SSE,151,12.0,24.0,82,0.00,,,0.00,171,Wunderground v.1.15,2013-04-07 21:53:00,
2013-04-07 18:02:00,46.9,42.0,30.06,SSE,160,12.0,16.0,83,0.00,,,0.00,120,Wunderground v.1.15,2013-04-07 22:02:00,
2013-04-07 18:12:00,46.7,41.8,30.07,SSE,161,12.0,24.0,83,0.00,,,0.00,95,Wunderground v.1.15,2013-04-07 22:12:00,
2013-04-07 18:17:00,46.7,42.1,30.07,SSE,154,11.0,11.0,84,0.00,,,0.00,93,Wunderground v.1.15,2013-04-07 22:17:00,
2013-04-07 18:23:00,46.8,42.2,30.08,SE,142,11.0,16.0,84,0.00,,,0.00,83,Wunderground v.1.15,2013-04-07 22:23:00,
2013-04-07 18:33:00,46.8,42.2,30.07,SE,133,13.0,13.0,84,0.00,,,0.00,72,Wunderground v.1.15,2013-04-07 22:33:00,
2013-04-07 18:42:00,46.7,42.1,30.06,SE,143,11.0,15.0,84,0.00,,,0.00,53,Wunderground v.1.15,2013-04-07 22:42:00,
2013-04-07 18:53:00,46.4,42.1,30.04,SSE,156,12.0,12.0,85,0.00,,,0.00,32,Wunderground v.1.15,2013-04-07 22:53:00,
2013-04-07 19:03:00,46.2,42.2,30.06,SE,142,11.0,21.0,86,0.00,,,0.00,18,Wunderground v.1.15,2013-04-07 23:03:00,
2013-04-07 19:12:00,46.2,42.2,30.06,SE,144,12.0,21.0,86,0.00,,,0.00,11,Wunderground v.1.15,2013-04-07 23:12:00,
2013-04-07 19:18:00,46.1,42.1,30.06,SSE,150,12.0,21.0,86,0.00,,,0.00,11,Wunderground v.1.15,2013-04-07 23:18:00,
2013-04-07 19:28:00,46.0,42.0,30.06,South,174,11.0,11.0,86,0.00,,,0.00,0,Wunderground v.1.15,2013-04-07 23:28:00,
2013-04-07 19:37:00,46.0,42.3,30.06,South,188,10.0,21.0,87,0.00,,,0.00,0,Wunderground v.1.15,2013-04-07 23:37:00,
2013-04-07 19:43:00,46.1,42.4,30.06,SSE,153,11.0,21.0,87,0.00,,,0.00,0,Wunderground v.1.15,2013-04-07 23:43:00,
2013-04-07 19:52:00,46.2,42.5,30.06,SSE,155,10.0,21.0,87,0.00,,,0.00,0,Wunderground v.1.15,2013-04-07 23:52:00,
2013-04-07 19:58:00,46.2,42.5,30.06,ESE,123,10.0,19.0,87,0.00,,,0.00,0,Wunderground v.1.15,2013-04-07 23:58:00,
2013-04-07 20:08:00,46.2,42.5,30.06,SE,145,11.0,19.0,87,0.00,,,0.00,0,Wunderground v.1.15,2013-04-08 00:08:00,
2013-04-07 20:18:00,46.3,42.6,30.06,South,184,11.0,11.0,87,0.00,,,0.00,0,Wunderground v.1.15,2013-04-08 00:18:00,
2013-04-07 20:28:00,46.5,42.8,30.07,SSE,147,10.0,20.0,87,0.00,,,0.00,0,Wunderground v.1.15,2013-04-08 00:28:00,
2013-04-07 20:37:00,46.7,43.0,30.07,South,184,11.0,20.0,87,0.00,,,0.00,0,Wunderground v.1.15,2013-04-08 00:37:00,
2013-04-07 20:43:00,46.7,43.0,30.07,SE,146,10.0,20.0,87,0.00,,,0.00,0,Wunderground v.1.15,2013-04-08 00:43:00,
2013-04-07 20:52:00,46.7,43.0,30.07,SSE,162,9.0,20.0,87,0.00,,,0.00,0,Wunderground v.1.15,2013-04-08 00:52:00,
2013-04-07 20:58:00,46.6,42.9,30.07,SSE,157,8.0,20.0,87,0.00,,,0.00,0,Wunderground v.1.15,2013-04-08 00:58:00,
2013-04-07 21:08:00,46.5,43.1,30.07,SSE,161,8.0,8.0,88,0.00,,,0.00,0,Wunderground v.1.15,2013-04-08 01:08:00,
2013-04-07 21:18:00,46.5,43.1,30.07,South,186,7.0,7.0,88,0.00,,,0.00,0,Wunderground v.1.15,2013-04-08 01:18:00,
2013-04-07 21:28:00,46.6,43.2,30.07,SE,146,7.0,7.0,88,0.00,,,0.00,0,Wunderground v.1.15,2013-04-08 01:28:00,
2013-04-07 21:38:00,46.7,43.6,30.07,South,171,7.0,17.0,89,0.00,,,0.00,0,Wunderground v.1.15,2013-04-08 01:38:00,
2013-04-07 21:47:00,46.7,43.6,30.06,SSE,156,7.0,7.0,89,0.00,,,0.00,0,Wunderground v.1.15,2013-04-08 01:47:00,
2013-04-07 21:53:00,46.7,43.6,30.06,South,169,7.0,15.0,89,0.00,,,0.00,0,Wunderground v.1.15,2013-04-08 01:53:00,
2013-04-07 22:03:00,46.7,43.6,30.06,South,180,8.0,15.0,89,0.00,,,0.00,0,Wunderground v.1.15,2013-04-08 02:03:00,
2013-04-07 22:13:00,46.6,43.5,30.06,SSW,196,7.0,15.0,89,0.00,,,0.00,0,Wunderground v.1.15,2013-04-08 02:13:00,
2013-04-07 22:22:00,46.5,43.7,30.05,South,188,7.0,15.0,90,0.00,,,0.00,0,Wunderground v.1.15,2013-04-08 02:22:00,
2013-04-07 22:28:00,46.5,43.7,30.05,South,189,7.0,7.0,90,0.00,,,0.00,0,Wunderground v.1.15,2013-04-08 02:28:00,
2013-04-07 22:37:00,46.3,43.5,30.05,SSW,200,6.0,15.0,90,0.00,,,0.00,0,Wunderground v.1.15,2013-04-08 02:37:00,
2013-04-07 22:48:00,46.1,43.6,30.05,South,176,5.0,5.0,91,0.00,,,0.00,0,Wunderground v.1.15,2013-04-08 02:48:00,
2013-04-07 22:58:00,46.0,43.5,30.05,South,184,6.0,6.0,91,0.00,,,0.00,0,Wunderground v.1.15,2013-04-08 02:58:00,
2013-04-07 23:03:00,46.0,43.5,30.05,SSW,195,6.0,10.0,91,0.00,,,0.00,0,Wunderground v.1.15,2013-04-08 03:03:00,
2013-04-07 23:13:00,46.1,43.9,30.04,SW,225,7.0,14.0,92,0.00,,,0.00,0,Wunderground v.1.15,2013-04-08 03:13:00,
2013-04-07 23:18:00,46.1,43.9,30.04,SSW,203,7.0,7.0,92,0.00,,,0.00,0,Wunderground v.1.15,2013-04-08 03:18:00,
2013-04-07 23:28:00,46.1,43.9,30.04,SSW,206,6.0,13.0,92,0.00,,,0.00,0,Wunderground v.1.15,2013-04-08 03:28:00,
2013-04-07 23:37:00,46.0,43.8,30.03,South,184,6.0,13.0,92,0.00,,,0.00,0,Wunderground v.1.15,2013-04-08 03:37:00,
2013-04-07 23:43:00,46.0,43.8,30.03,SW,235,6.0,13.0,92,0.00,,,0.00,0,Wunderground v.1.15,2013-04-08 03:43:00,
2013-04-07 23:53:00,46.0,44.1,30.03,South,190,6.0,11.0,93,0.00,,,0.00,0,Wunderground v.1.15,2013-04-08 03:53:00,